Time;durP1;ratioP1;P1;durP2;ratioP2;P2;SDS_P1;SDS_P2;PMS_P1;PMS_P2;Temp;Humidity;BMP_temperature;BMP_pressure;BME280_temperature;BME280_humidity;BME280_pressure;Samples;Min_cycle;Max_cycle;Signal;HPM_P1;HPM_P2
2022/04/15 00:00:20;;;;;;;15.70;10.57;;;9.80;1.00;;;;;;5078749;28;20457;-59
2022/04/15 00:02:50;;;;;;;11.90;9.37;;;9.80;1.00;;;;;;5080354;28;20472;-60
2022/04/15 00:08:01;;;;;;;12.07;9.53;;;9.50;1.00;;;;;;5079663;28;20463;-59
2022/04/15 00:10:30;;;;;;;11.80;10.70;;;9.40;1.00;;;;;;5079979;28;20461;-58
2022/04/15 00:12:58;;;;;;;15.63;11.00;;;9.40;1.00;;;;;;5079090;28;20518;-59
2022/04/15 00:15:27;;;;;;;13.30;10.47;;;9.30;1.00;;;;;;5079162;28;20493;-59
2022/04/15 00:18:00;;;;;;;11.50;9.13;;;9.20;1.00;;;;;;5079669;28;20461;-59
2022/04/15 00:20:27;;;;;;;9.93;8.90;;;9.10;1.00;;;;;;5080147;28;20890;-60
2022/04/15 00:22:58;;;;;;;13.30;9.27;;;9.10;1.00;;;;;;5080216;28;20457;-60
2022/04/15 00:25:37;;;;;;;12.20;9.93;;;8.90;1.00;;;;;;5079050;28;20552;-59
2022/04/15 00:28:05;;;;;;;11.53;10.30;;;9.00;1.00;;;;;;5059781;28;20493;-59
2022/04/15 00:30:32;;;;;;;9.50;8.50;;;8.90;1.00;;;;;;5065821;28;20526;-59
2022/04/15 00:33:05;;;;;;;13.60;10.87;;;8.90;1.00;;;;;;5079370;28;20477;-59
2022/04/15 00:35:32;;;;;;;14.10;9.73;;;8.90;13.10;;;;;;5079296;28;20528;-59
2022/04/15 00:37:59;;;;;;;16.10;9.67;;;8.80;14.40;;;;;;5077148;28;20491;-59
2022/04/15 00:40:27;;;;;;;14.50;10.60;;;8.80;81.20;;;;;;5079146;28;20461;-59
2022/04/15 00:42:56;;;;;;;15.73;10.20;;;8.80;99.90;;;;;;5079367;28;20958;-59
2022/04/15 00:45:23;;;;;;;11.30;9.60;;;8.70;99.90;;;;;;5079589;28;20773;-59
2022/04/15 00:47:52;;;;;;;10.60;9.50;;;8.60;99.90;;;;;;5078377;28;20519;-59
2022/04/15 00:50:25;;;;;;;11.13;9.73;;;8.60;99.90;;;;;;5079565;28;20522;-59
2022/04/15 00:52:58;;;;;;;11.60;9.30;;;8.60;99.90;;;;;;5079362;28;20466;-59
2022/04/15 00:55:26;;;;;;;12.87;10.57;;;8.60;99.90;;;;;;5078648;28;20783;-58
2022/04/15 00:57:58;;;;;;;13.57;10.60;;;8.50;99.90;;;;;;5077675;28;20461;-59
2022/04/15 01:00:32;;;;;;;12.20;9.70;;;8.50;99.90;;;;;;5079210;28;20975;-59
2022/04/15 01:03:00;;;;;;;13.67;9.90;;;8.50;99.90;;;;;;5077990;28;20465;-59
2022/04/15 01:05:31;;;;;;;11.87;10.20;;;8.40;99.90;;;;;;5078272;28;20461;-58
2022/04/15 01:08:01;;;;;;;12.30;9.57;;;8.30;99.90;;;;;;5078292;28;20497;-59
2022/04/15 01:10:29;;;;;;;13.13;10.97;;;8.30;99.90;;;;;;5079094;28;20461;-59
2022/04/15 01:13:06;;;;;;;10.80;9.70;;;8.30;99.90;;;;;;5078780;28;20457;-59
2022/04/15 01:15:34;;;;;;;13.80;10.10;;;8.30;1.00;;;;;;5078517;28;20550;-59
2022/04/15 01:18:01;;;;;;;10.40;9.30;;;8.20;1.00;;;;;;5077735;28;20453;-59
2022/04/15 01:20:30;;;;;;;11.90;10.13;;;8.20;99.90;;;;;;5078445;28;20465;-59
2022/04/15 01:23:04;;;;;;;14.33;10.00;;;8.20;99.90;;;;;;5078005;28;20898;-59
2022/04/15 01:25:31;;;;;;;10.53;9.27;;;8.10;1.00;;;;;;5077989;28;20533;-59
2022/04/15 01:28:01;;;;;;;11.93;9.80;;;8.00;99.90;;;;;;5077890;28;20462;-58
2022/04/15 01:30:28;;;;;;;12.17;9.43;;;8.00;99.90;;;;;;5078461;28;20649;-59
2022/04/15 01:32:59;;;;;;;10.70;9.70;;;7.90;1.00;;;;;;5078413;28;20518;-59
2022/04/15 01:35:26;;;;;;;14.60;9.70;;;7.90;1.00;;;;;;5077218;28;20489;-59
2022/04/15 01:37:56;;;;;;;12.60;10.57;;;7.80;1.00;;;;;;5077305;28;20485;-58
2022/04/15 01:40:27;;;;;;;11.73;10.50;;;7.80;8.60;;;;;;5078363;28;20535;-58
2022/04/15 01:42:54;;;;;;;12.10;10.80;;;7.80;27.70;;;;;;5078463;28;20795;-58
2022/04/15 01:45:25;;;;;;;10.60;9.50;;;7.80;1.00;;;;;;5077638;28;20739;-58
2022/04/15 01:47:52;;;;;;;15.83;11.00;;;7.70;12.10;;;;;;5077707;28;20546;-58
2022/04/15 01:50:19;;;;;;;11.93;10.50;;;7.70;99.90;;;;;;5077913;28;20469;-59
2022/04/15 01:52:46;;;;;;;12.17;10.03;;;7.70;99.90;;;;;;5078143;28;20472;-59
2022/04/15 01:55:13;;;;;;;12.93;10.10;;;7.60;99.90;;;;;;5076963;28;20464;-59
2022/04/15 01:57:47;;;;;;;16.13;11.17;;;7.70;99.90;;;;;;5077390;28;20538;-59
2022/04/15 02:00:19;;;;;;;11.07;9.77;;;7.70;99.90;;;;;;5077076;28;20461;-59
2022/04/15 02:02:47;;;;;;;14.13;9.90;;;7.60;55.10;;;;;;5078334;28;20465;-59
2022/04/15 02:05:14;;;;;;;12.13;10.53;;;7.50;1.00;;;;;;5075619;28;20468;-59
2022/04/15 02:07:41;;;;;;;12.33;10.63;;;7.50;1.00;;;;;;5077223;28;20870;-59
2022/04/15 02:10:09;;;;;;;13.27;10.40;;;7.40;1.00;;;;;;5076816;28;20461;-59
2022/04/15 02:12:36;;;;;;;11.73;10.23;;;7.40;1.00;;;;;;5077259;28;20468;-57
2022/04/15 02:15:06;;;;;;;12.43;11.13;;;7.40;1.00;;;;;;5077651;28;20886;-59
2022/04/15 02:17:33;;;;;;;13.87;11.03;;;7.30;1.00;;;;;;5076441;28;20527;-58
2022/04/15 02:20:00;;;;;;;13.73;10.80;;;7.30;1.00;;;;;;5076791;28;20435;-59
2022/04/15 02:22:27;;;;;;;13.73;12.30;;;7.30;1.00;;;;;;5077573;28;20851;-57
2022/04/15 02:24:54;;;;;;;14.53;12.40;;;7.30;99.90;;;;;;5077575;28;20954;-58
2022/04/15 02:27:24;;;;;;;16.37;11.17;;;7.30;99.90;;;;;;5076777;28;20453;-59
2022/04/15 02:29:51;;;;;;;14.10;10.67;;;7.30;99.90;;;;;;5077091;28;20461;-59
2022/04/15 02:32:24;;;;;;;15.77;12.70;;;7.20;99.90;;;;;;5077242;28;20462;-58
2022/04/15 02:34:54;;;;;;;13.03;11.43;;;7.20;99.90;;;;;;5076878;28;20457;-58
2022/04/15 02:37:21;;;;;;;15.40;11.30;;;7.20;99.90;;;;;;5077085;28;20590;-57
2022/04/15 02:39:56;;;;;;;12.50;11.20;;;7.10;99.90;;;;;;5077259;28;20468;-58
2022/04/15 02:42:23;;;;;;;13.40;11.07;;;7.20;1.00;;;;;;5076644;28;20464;-59
2022/04/15 02:45:03;;;;;;;13.10;10.80;;;7.10;1.00;;;;;;5077453;28;20457;-59
2022/04/15 02:47:37;;;;;;;16.57;11.27;;;7.10;1.00;;;;;;5077143;28;20457;-58
2022/04/15 02:50:09;;;;;;;15.97;10.57;;;7.10;30.00;;;;;;5077214;28;20457;-59
2022/04/15 02:52:38;;;;;;;11.90;10.50;;;7.00;1.00;;;;;;5076804;28;20493;-59
2022/04/15 02:55:08;;;;;;;13.97;10.43;;;7.00;1.00;;;;;;5077268;28;20774;-58
2022/04/15 02:57:42;;;;;;;13.37;11.20;;;6.90;1.00;;;;;;5076950;28;20584;-58
2022/04/15 03:00:11;;;;;;;12.97;10.30;;;6.90;1.00;;;;;;5077552;28;20800;-59
2022/04/15 03:02:53;;;;;;;12.93;10.13;;;6.90;1.00;;;;;;5075976;28;20495;-59
2022/04/15 03:05:20;;;;;;;12.10;9.93;;;6.90;42.90;;;;;;5076845;28;20463;-59
2022/04/15 03:08:02;;;;;;;11.47;9.93;;;6.80;99.90;;;;;;5076822;28;20484;-58
2022/04/15 03:10:29;;;;;;;10.60;9.50;;;6.80;1.00;;;;;;5074051;28;20469;-59
2022/04/15 03:12:56;;;;;;;13.27;11.50;;;6.80;1.00;;;;;;5076361;28;20507;-59
2022/04/15 03:15:26;;;;;;;12.33;11.13;;;6.80;1.00;;;;;;5076662;28;20733;-59
2022/04/15 03:17:54;;;;;;;13.30;10.63;;;6.80;1.00;;;;;;5076332;28;20543;-59
2022/04/15 03:20:24;;;;;;;11.30;9.60;;;6.80;99.90;;;;;;5076796;28;20461;-58
2022/04/15 03:22:54;;;;;;;11.40;9.83;;;6.70;99.90;;;;;;5076524;28;20457;-58
2022/04/15 03:25:23;;;;;;;17.13;11.27;;;6.70;99.90;;;;;;5077248;28;20567;-59
2022/04/15 03:27:50;;;;;;;11.70;9.80;;;6.60;99.90;;;;;;5076314;28;20485;-59
2022/04/15 03:30:17;;;;;;;12.13;9.27;;;6.60;1.00;;;;;;5076374;28;20467;-59
2022/04/15 03:32:47;;;;;;;13.53;11.17;;;6.60;1.00;;;;;;5076910;28;20889;-59
2022/04/15 03:35:17;;;;;;;11.73;9.93;;;6.60;1.00;;;;;;5076200;28;20465;-59
2022/04/15 03:37:47;;;;;;;12.10;9.30;;;6.60;1.00;;;;;;5075995;28;20779;-58
2022/04/15 03:40:21;;;;;;;13.00;9.70;;;6.50;99.90;;;;;;5076912;28;20534;-58
2022/04/15 03:42:53;;;;;;;13.70;10.50;;;6.50;99.90;;;;;;5076817;28;20514;-59
2022/04/15 03:45:25;;;;;;;11.00;9.40;;;6.50;99.90;;;;;;5076326;28;20548;-59
2022/04/15 03:47:55;;;;;;;9.83;8.83;;;6.40;99.90;;;;;;5076362;28;20804;-58
2022/04/15 03:50:24;;;;;;;13.40;10.60;;;6.40;99.90;;;;;;5075667;28;20472;-58
2022/04/15 03:52:57;;;;;;;12.70;10.23;;;6.30;99.90;;;;;;5076769;28;20836;-58
2022/04/15 03:55:27;;;;;;;9.67;8.70;;;6.30;1.00;;;;;;5075139;28;20461;-59
2022/04/15 03:57:56;;;;;;;12.13;9.30;;;6.30;99.90;;;;;;5076131;28;20493;-58
2022/04/15 04:00:27;;;;;;;15.27;10.60;;;6.20;1.00;;;;;;5076332;28;20465;-59
2022/04/15 04:02:58;;;;;;;15.67;11.17;;;6.10;99.90;;;;;;5076738;28;20461;-59
2022/04/15 04:05:27;;;;;;;10.77;9.67;;;6.10;1.00;;;;;;5075808;28;20534;-59
2022/04/15 04:07:58;;;;;;;11.37;10.17;;;6.10;99.90;;;;;;5076340;28;20515;-58
2022/04/15 04:10:25;;;;;;;11.83;10.20;;;6.20;1.00;;;;;;5076079;28;20466;-58
2022/04/15 04:12:52;;;;;;;13.27;10.60;;;6.20;1.00;;;;;;5076380;28;20507;-58
2022/04/15 04:15:19;;;;;;;15.30;10.30;;;6.10;99.90;;;;;;5079382;28;20870;-58
2022/04/15 04:17:49;;;;;;;12.40;9.83;;;6.10;1.00;;;;;;5079576;28;20941;-58
2022/04/15 04:20:18;;;;;;;14.40;10.90;;;6.00;99.90;;;;;;5079962;28;20758;-58
2022/04/15 04:22:54;;;;;;;13.60;10.40;;;5.90;1.00;;;;;;5079806;28;20511;-58
2022/04/15 04:25:22;;;;;;;16.53;10.20;;;5.90;1.00;;;;;;5079632;28;20865;-58
2022/04/15 04:27:52;;;;;;;13.60;9.67;;;5.90;99.90;;;;;;5078956;28;20465;-57
2022/04/15 04:30:19;;;;;;;15.00;10.67;;;5.90;1.00;;;;;;5079424;28;20465;-57
2022/04/15 04:32:50;;;;;;;14.70;11.00;;;5.90;90.30;;;;;;5079893;28;20469;-58
2022/04/15 04:35:18;;;;;;;13.07;10.63;;;6.00;99.90;;;;;;5080059;28;20469;-58
2022/04/15 04:37:50;;;;;;;15.03;11.00;;;5.90;1.00;;;;;;5078695;28;20503;-56
2022/04/15 04:40:18;;;;;;;13.30;9.57;;;5.90;1.00;;;;;;5079549;28;20499;-58
2022/04/15 04:42:46;;;;;;;14.37;10.50;;;5.90;32.10;;;;;;5079178;28;20485;-58
2022/04/15 04:45:16;;;;;;;12.43;10.90;;;5.90;1.00;;;;;;5079567;28;20483;-58
2022/04/15 04:47:47;;;;;;;13.93;10.57;;;5.90;1.00;;;;;;5078627;28;20466;-58
2022/04/15 04:50:18;;;;;;;11.63;10.43;;;5.90;99.90;;;;;;5078885;28;20519;-57
2022/04/15 04:52:46;;;;;;;14.37;11.00;;;5.80;1.00;;;;;;5078484;28;20468;-58
2022/04/15 04:55:19;;;;;;;12.03;10.60;;;5.90;1.00;;;;;;5078002;28;20897;-59
2022/04/15 04:57:46;;;;;;;14.83;11.23;;;5.90;1.00;;;;;;5078448;28;20941;-58
2022/04/15 05:00:15;;;;;;;19.70;12.30;;;5.90;1.00;;;;;;5078923;28;20461;-58
2022/04/15 05:02:42;;;;;;;13.47;10.30;;;6.00;1.00;;;;;;5078918;28;20468;-58
2022/04/15 05:05:13;;;;;;;13.33;10.60;;;6.00;99.90;;;;;;5079177;28;20943;-59
2022/04/15 05:07:44;;;;;;;13.50;11.00;;;6.00;1.00;;;;;;5078383;28;20432;-58
2022/04/15 05:10:17;;;;;;;15.40;10.93;;;6.10;99.90;;;;;;5078502;28;20491;-59
2022/04/15 05:12:50;;;;;;;16.43;12.60;;;6.20;1.00;;;;;;5079009;28;20471;-59
2022/04/15 05:15:19;;;;;;;17.07;11.93;;;6.30;92.90;;;;;;5079045;28;20892;-59
2022/04/15 05:17:48;;;;;;;12.80;10.80;;;6.40;55.00;;;;;;5078509;28;20781;-58
2022/04/15 05:20:22;;;;;;;15.00;12.40;;;6.50;1.00;;;;;;5077511;28;20458;-59
2022/04/15 05:22:52;;;;;;;15.73;11.40;;;6.50;44.60;;;;;;5079102;28;20959;-59
2022/04/15 05:25:29;;;;;;;15.90;11.83;;;6.70;99.90;;;;;;5078271;28;20465;-59
2022/04/15 05:27:59;;;;;;;13.20;11.80;;;6.70;1.00;;;;;;5078502;28;20815;-59
2022/04/15 05:30:30;;;;;;;13.93;11.27;;;6.70;99.90;;;;;;5078024;28;20947;-59
2022/04/15 05:33:00;;;;;;;11.73;10.57;;;6.80;83.40;;;;;;5078497;28;20531;-59
2022/04/15 05:35:27;;;;;;;12.03;10.40;;;6.90;99.90;;;;;;5078576;28;20815;-59
2022/04/15 05:37:54;;;;;;;13.37;10.90;;;7.00;55.70;;;;;;5077904;28;20592;-60
2022/04/15 05:40:22;;;;;;;12.07;10.70;;;7.10;99.90;;;;;;5077657;28;20519;-59
2022/04/15 05:42:53;;;;;;;15.30;11.33;;;7.30;99.90;;;;;;5076436;28;20469;-59
2022/04/15 05:45:23;;;;;;;15.50;11.90;;;7.40;99.90;;;;;;5078278;28;20515;-59
2022/04/15 05:47:57;;;;;;;12.93;11.60;;;7.50;1.00;;;;;;5078123;28;20769;-59
2022/04/15 05:50:32;;;;;;;13.90;10.50;;;7.50;99.90;;;;;;5077356;28;20464;-59
2022/04/15 05:53:01;;;;;;;18.60;12.20;;;7.50;93.70;;;;;;5078138;28;20465;-59
2022/04/15 05:55:35;;;;;;;12.10;10.30;;;7.50;1.00;;;;;;5076815;28;20810;-59
2022/04/15 05:58:02;;;;;;;17.20;12.30;;;7.60;2.70;;;;;;5076851;28;21036;-60
2022/04/15 06:00:32;;;;;;;17.50;14.03;;;7.70;99.90;;;;;;5076012;28;20462;-60
2022/04/15 06:03:09;;;;;;;17.70;15.80;;;7.80;99.90;;;;;;5077872;28;20515;-59
2022/04/15 06:05:36;;;;;;;23.07;17.97;;;7.90;1.00;;;;;;5077526;28;20882;-59
2022/04/15 06:08:07;;;;;;;21.00;18.80;;;8.10;99.90;;;;;;5077859;28;20458;-59
2022/04/15 06:10:35;;;;;;;28.30;21.63;;;8.20;99.90;;;;;;5076970;28;20761;-59
2022/04/15 06:13:04;;;;;;;28.57;21.73;;;8.20;99.90;;;;;;5077836;28;20891;-59
2022/04/15 06:15:32;;;;;;;27.73;22.53;;;8.20;99.90;;;;;;5076994;28;20469;-60
2022/04/15 06:18:02;;;;;;;25.70;19.80;;;8.10;99.90;;;;;;5076746;28;20486;-59
2022/04/15 06:20:35;;;;;;;30.77;20.77;;;8.00;99.90;;;;;;5077657;28;20917;-59
2022/04/15 06:23:02;;;;;;;25.40;18.80;;;7.90;99.90;;;;;;5077627;28;20886;-60
2022/04/15 06:25:31;;;;;;;27.80;20.60;;;7.90;99.90;;;;;;5077064;28;20466;-60
2022/04/15 06:30:42;;;;;;;26.90;19.27;;;7.90;99.90;;;;;;5076768;28;20453;-60
2022/04/15 06:33:09;;;;;;;22.97;19.97;;;7.90;99.90;;;;;;5077141;28;20882;-60
2022/04/15 06:35:40;;;;;;;27.70;20.30;;;7.90;99.90;;;;;;5076707;28;20463;-60
2022/04/15 06:38:07;;;;;;;23.20;17.13;;;7.90;99.90;;;;;;5076960;28;20551;-60
2022/04/15 06:40:38;;;;;;;23.90;18.33;;;7.80;99.90;;;;;;5068898;28;20470;-60
2022/04/15 06:43:08;;;;;;;26.57;18.30;;;7.80;99.90;;;;;;5064354;28;20506;-59
2022/04/15 06:45:35;;;;;;;25.07;16.97;;;7.70;99.90;;;;;;5066278;28;20466;-60
2022/04/15 06:48:02;;;;;;;24.97;17.77;;;7.60;99.90;;;;;;5058531;28;20495;-60
2022/04/15 06:50:31;;;;;;;24.90;18.20;;;7.70;99.90;;;;;;5073526;28;20476;-60
2022/04/15 06:52:59;;;;;;;28.87;19.30;;;7.80;99.90;;;;;;5060912;28;20565;-60
2022/04/15 06:55:29;;;;;;;22.60;17.10;;;7.80;99.90;;;;;;5057565;28;20474;-60
2022/04/15 06:57:57;;;;;;;26.47;18.47;;;7.80;99.90;;;;;;5069500;28;20580;-59
2022/04/15 07:00:36;;;;;;;25.80;19.17;;;7.90;99.90;;;;;;5057217;28;20540;-60
2022/04/15 07:03:12;;;;;;;22.60;17.80;;;8.00;99.90;;;;;;5073173;28;20822;-59
2022/04/15 07:05:41;;;;;;;20.40;16.07;;;8.00;99.90;;;;;;5070562;28;20564;-60
2022/04/15 07:08:10;;;;;;;24.20;17.67;;;7.90;99.90;;;;;;5064944;28;20457;-60
2022/04/15 07:10:38;;;;;;;24.53;18.30;;;7.90;99.90;;;;;;5060663;28;20821;-60
2022/04/15 07:13:08;;;;;;;23.60;18.33;;;8.00;99.90;;;;;;5059768;28;20924;-59
2022/04/15 07:15:36;;;;;;;24.03;17.70;;;7.90;99.90;;;;;;5067727;28;20473;-60
2022/04/15 07:18:04;;;;;;;23.77;19.70;;;7.80;99.90;;;;;;5061669;28;21022;-60
2022/04/15 07:20:33;;;;;;;26.23;20.30;;;7.70;99.90;;;;;;5056956;28;20466;-60
2022/04/15 07:23:04;;;;;;;25.30;20.80;;;7.80;99.90;;;;;;5062590;28;20776;-59
2022/04/15 07:25:31;;;;;;;28.10;20.60;;;7.80;99.90;;;;;;5062375;28;20485;-59
2022/04/15 07:27:59;;;;;;;27.67;21.57;;;7.80;99.90;;;;;;5057629;28;20486;-60
2022/04/15 07:30:29;;;;;;;29.43;20.70;;;7.80;99.90;;;;;;5061797;28;20466;-60
2022/04/15 07:33:04;;;;;;;26.00;19.70;;;7.80;99.90;;;;;;5056413;28;20465;-59
2022/04/15 07:35:37;;;;;;;23.10;18.57;;;7.70;99.90;;;;;;5069917;28;20461;-58
2022/04/15 07:38:10;;;;;;;26.00;18.50;;;7.90;99.90;;;;;;5076602;28;20504;-59
2022/04/15 07:40:44;;;;;;;30.20;17.97;;;7.90;99.90;;;;;;5076464;28;20533;-59
2022/04/15 07:43:12;;;;;;;23.07;17.47;;;7.90;99.90;;;;;;5076875;28;20460;-59
2022/04/15 07:45:39;;;;;;;25.77;19.10;;;8.00;99.90;;;;;;5076155;28;20516;-59
2022/04/15 07:48:13;;;;;;;27.07;19.07;;;8.60;99.90;;;;;;5078422;28;20548;-59
2022/04/15 07:50:45;;;;;;;22.30;18.37;;;9.00;99.90;;;;;;5080506;28;20832;-59
2022/04/15 07:53:18;;;;;;;21.83;17.70;;;9.00;99.90;;;;;;5077007;28;20530;-58
2022/04/15 07:55:45;;;;;;;20.00;16.33;;;8.70;99.90;;;;;;5067749;28;20462;-59
2022/04/15 07:58:12;;;;;;;27.60;16.80;;;8.50;99.90;;;;;;5072319;28;20497;-59
2022/04/15 08:00:42;;;;;;;21.53;17.30;;;8.30;99.90;;;;;;5075903;28;20971;-59
2022/04/15 08:03:11;;;;;;;22.87;16.33;;;8.30;99.90;;;;;;5064984;28;20746;-59
2022/04/15 08:05:45;;;;;;;19.73;15.30;;;8.30;99.90;;;;;;5077187;28;20894;-59
2022/04/15 08:08:12;;;;;;;17.30;14.27;;;8.50;99.90;;;;;;5080162;28;20461;-59
2022/04/15 08:10:39;;;;;;;17.43;13.07;;;8.80;99.90;;;;;;5079812;28;20560;-59
2022/04/15 08:13:08;;;;;;;17.87;13.57;;;8.90;99.90;;;;;;5078949;28;20565;-59
2022/04/15 08:15:44;;;;;;;19.73;13.40;;;9.30;99.90;;;;;;5079536;28;20519;-60
2022/04/15 08:18:13;;;;;;;15.80;12.90;;;9.50;99.90;;;;;;5079733;28;20520;-60
2022/04/15 08:20:52;;;;;;;13.93;12.40;;;9.40;1.00;;;;;;5079592;28;20458;-60
2022/04/15 08:23:19;;;;;;;16.80;12.67;;;9.50;1.00;;;;;;5080032;28;20453;-60
2022/04/15 08:25:48;;;;;;;12.93;11.40;;;9.40;99.90;;;;;;5079374;28;20504;-59
2022/04/15 08:28:15;;;;;;;14.93;13.33;;;9.40;99.90;;;;;;5078815;28;20457;-60
2022/04/15 08:30:44;;;;;;;10.90;9.80;;;9.30;90.50;;;;;;5079543;28;20479;-60
2022/04/15 08:33:12;;;;;;;9.23;8.20;;;9.30;7.00;;;;;;5079750;28;20457;-60
2022/04/15 08:35:46;;;;;;;8.40;7.60;;;9.30;1.00;;;;;;5079659;28;20511;-59
2022/04/15 08:38:15;;;;;;;6.87;6.20;;;9.30;1.00;;;;;;5077918;28;20516;-59
2022/04/15 08:40:46;;;;;;;8.27;7.00;;;9.50;1.00;;;;;;5079224;28;20465;-59
2022/04/15 08:43:14;;;;;;;6.73;6.03;;;9.90;1.00;;;;;;5079160;28;20461;-60
2022/04/15 08:45:47;;;;;;;6.40;5.80;;;10.50;1.00;;;;;;5079380;28;20457;-60
2022/04/15 08:48:24;;;;;;;6.10;5.60;;;10.80;1.00;;;;;;5078665;28;20897;-60
2022/04/15 08:50:51;;;;;;;5.40;4.90;;;10.70;1.00;;;;;;5079587;28;20568;-59
2022/04/15 08:53:22;;;;;;;6.30;5.70;;;10.90;1.00;;;;;;5078938;28;20914;-60
2022/04/15 08:55:55;;;;;;;6.90;5.20;;;10.70;1.00;;;;;;5070640;28;20774;-60
2022/04/15 08:58:25;;;;;;;6.70;4.80;;;10.40;1.00;;;;;;5065210;28;20489;-60
2022/04/15 09:00:54;;;;;;;6.63;5.03;;;10.60;1.00;;;;;;5076413;28;20457;-59
2022/04/15 09:03:25;;;;;;;5.63;5.00;;;10.40;1.00;;;;;;5076940;28;20556;-59
2022/04/15 09:05:58;;;;;;;5.03;4.40;;;10.30;1.00;;;;;;5078287;28;20481;-60
2022/04/15 09:08:25;;;;;;;5.93;5.33;;;10.20;1.00;;;;;;5078146;28;20461;-60
2022/04/15 09:10:59;;;;;;;6.80;5.00;;;10.40;1.00;;;;;;5078657;28;20523;-60
2022/04/15 09:13:55;;;;;;;5.73;5.20;;;10.50;1.00;;;;;;5078251;28;20897;-60
2022/04/15 09:16:27;;;;;;;8.53;5.63;;;10.40;1.00;;;;;;5076164;28;20797;-60
2022/04/15 09:18:56;;;;;;;5.17;4.50;;;10.30;1.00;;;;;;5077798;28;20728;-59
2022/04/15 09:21:28;;;;;;;6.10;5.50;;;10.30;1.00;;;;;;5078841;28;20461;-60
2022/04/15 09:23:58;;;;;;;5.47;4.97;;;10.50;1.00;;;;;;5078278;28;20775;-60
2022/04/15 09:26:29;;;;;;;4.80;4.40;;;11.00;1.00;;;;;;5077022;28;20918;-60
2022/04/15 09:28:56;;;;;;;6.73;5.80;;;11.50;1.00;;;;;;5078887;28;20464;-60
2022/04/15 09:31:25;;;;;;;6.40;5.13;;;11.70;99.90;;;;;;5077603;28;20461;-60
2022/04/15 09:33:58;;;;;;;4.97;4.47;;;11.60;99.90;;;;;;5078147;28;20457;-59
2022/04/15 09:36:30;;;;;;;6.17;4.30;;;11.10;1.00;;;;;;5068189;28;20778;-59
2022/04/15 09:39:10;;;;;;;6.37;5.00;;;11.20;1.00;;;;;;5063464;28;20498;-60
2022/04/15 09:41:38;;;;;;;5.80;5.20;;;11.10;1.00;;;;;;5074695;28;20559;-60
2022/04/15 09:44:12;;;;;;;6.13;5.53;;;11.00;1.00;;;;;;5077678;28;20497;-60
2022/04/15 09:46:44;;;;;;;7.67;5.57;;;11.10;1.00;;;;;;5077705;28;20472;-60
2022/04/15 09:49:16;;;;;;;5.53;4.60;;;11.50;1.00;;;;;;5077635;28;20506;-60
2022/04/15 09:51:48;;;;;;;5.77;5.27;;;11.50;99.90;;;;;;5073721;28;20523;-60
2022/04/15 09:54:25;;;;;;;4.87;4.37;;;11.30;99.90;;;;;;5078161;28;20480;-60
2022/04/15 09:56:57;;;;;;;7.13;4.40;;;11.10;99.90;;;;;;5078136;28;20571;-59
2022/04/15 09:59:28;;;;;;;5.60;5.00;;;10.80;1.00;;;;;;5076097;28;20495;-59
2022/04/15 10:01:57;;;;;;;5.43;4.77;;;11.10;1.00;;;;;;5064439;28;20486;-60
2022/04/15 10:04:29;;;;;;;5.93;5.17;;;11.40;1.00;;;;;;5057327;28;20494;-60
2022/04/15 10:07:00;;;;;;;7.73;5.17;;;11.70;99.90;;;;;;5075548;28;20555;-59
2022/04/15 10:12:17;;;;;;;8.93;6.03;;;11.70;1.00;;;;;;5075909;28;20761;-61
2022/04/15 10:14:45;;;;;;;8.70;5.23;;;11.80;99.90;;;;;;5077287;28;20473;-61
2022/04/15 10:17:17;;;;;;;6.90;6.20;;;12.10;99.90;;;;;;5077678;28;20951;-61
2022/04/15 10:19:48;;;;;;;6.03;5.53;;;12.10;99.90;;;;;;5077467;28;20493;-61
2022/04/15 10:22:26;;;;;;;7.73;5.40;;;12.30;99.90;;;;;;5076825;28;20627;-61
2022/04/15 10:24:53;;;;;;;6.40;5.80;;;12.00;99.90;;;;;;5077369;28;20460;-61
2022/04/15 10:27:33;;;;;;;7.13;6.43;;;12.10;99.90;;;;;;5077729;28;20522;-61
2022/04/15 10:30:02;;;;;;;6.77;6.07;;;11.90;99.90;;;;;;5077127;28;20511;-61
2022/04/15 10:32:51;;;;;;;9.30;6.53;;;11.40;99.90;;;;;;5077769;28;20465;-61
2022/04/15 10:35:31;;;;;;;6.67;5.60;;;11.10;99.90;;;;;;5076962;28;20898;-61
2022/04/15 10:38:01;;;;;;;8.47;6.10;;;11.30;1.00;;;;;;5077323;28;20491;-60
2022/04/15 10:40:31;;;;;;;7.20;6.43;;;11.60;1.00;;;;;;5077011;28;20453;-61
2022/04/15 10:43:06;;;;;;;7.23;6.43;;;11.70;99.90;;;;;;5077654;28;20486;-61
2022/04/15 10:45:38;;;;;;;9.97;7.17;;;11.80;99.90;;;;;;5076495;28;20496;-61
2022/04/15 10:48:08;;;;;;;8.30;7.50;;;11.70;99.90;;;;;;5077351;28;20479;-61
2022/04/15 10:50:42;;;;;;;9.00;8.10;;;11.60;1.00;;;;;;5075832;28;20461;-60
2022/04/15 10:53:34;;;;;;;10.67;9.40;;;11.60;1.00;;;;;;5076870;28;20518;-61
2022/04/15 10:56:14;;;;;;;9.00;8.20;;;11.70;1.00;;;;;;5074251;28;20465;-61
2022/04/15 11:01:33;;;;;;;8.00;6.83;;;11.80;1.00;;;;;;5075215;28;20438;-61
2022/04/15 11:04:08;;;;;;;9.37;8.37;;;11.40;1.00;;;;;;5075459;28;20460;-61
2022/04/15 11:06:39;;;;;;;11.63;8.00;;;11.10;1.00;;;;;;5076188;28;20930;-61
2022/04/15 11:09:15;;;;;;;8.33;7.53;;;11.40;1.00;;;;;;5077189;28;20515;-61
2022/04/15 11:11:54;;;;;;;8.57;7.77;;;11.00;1.00;;;;;;5075647;28;20552;-61
2022/04/15 11:14:35;;;;;;;11.00;8.90;;;11.20;1.00;;;;;;5076996;28;20460;-61
2022/04/15 11:17:07;;;;;;;10.07;9.17;;;11.10;1.00;;;;;;5077077;28;20457;-61
2022/04/15 11:19:41;;;;;;;9.63;8.73;;;11.20;1.00;;;;;;5076611;28;20500;-61
2022/04/15 11:22:11;;;;;;;10.27;8.50;;;11.40;1.00;;;;;;5076428;28;20546;-61
2022/04/15 11:24:41;;;;;;;8.60;7.77;;;11.20;1.00;;;;;;5081086;28;20557;-61
2022/04/15 11:27:15;;;;;;;9.27;8.10;;;11.10;1.00;;;;;;5080568;28;20465;-61
2022/04/15 11:29:54;;;;;;;8.90;8.03;;;10.70;1.00;;;;;;5080859;28;20959;-61
2022/04/15 11:32:23;;;;;;;9.40;8.50;;;11.10;1.00;;;;;;5079731;28;20465;-61
2022/04/15 11:34:58;;;;;;;10.80;9.77;;;10.80;1.00;;;;;;5080695;28;20514;-61
2022/04/15 11:37:27;;;;;;;12.40;11.10;;;10.60;1.00;;;;;;5079564;28;20538;-61
2022/04/15 11:40:03;;;;;;;11.93;10.73;;;10.90;1.00;;;;;;5078375;28;21007;-60
2022/04/15 11:42:30;;;;;;;11.67;10.37;;;11.00;1.00;;;;;;5078230;28;20457;-61
2022/04/15 11:45:01;;;;;;;11.73;10.63;;;11.40;1.00;;;;;;5079086;28;20523;-61
2022/04/15 11:47:29;;;;;;;12.87;10.63;;;11.70;1.00;;;;;;5080289;28;20461;-61
2022/04/15 11:50:04;;;;;;;10.10;9.17;;;11.70;99.90;;;;;;5080189;28;20488;-61
2022/04/15 11:52:37;;;;;;;12.03;10.83;;;11.40;1.00;;;;;;5076562;28;20476;-61
2022/04/15 11:55:16;;;;;;;12.67;11.40;;;11.10;1.00;;;;;;5078692;28;20796;-61
2022/04/15 11:57:46;;;;;;;14.37;12.80;;;11.50;1.00;;;;;;5079467;28;20461;-61
2022/04/15 12:00:31;;;;;;;15.20;12.40;;;11.70;1.00;;;;;;5079647;28;20558;-61
2022/04/15 12:03:05;;;;;;;14.43;12.80;;;12.00;1.00;;;;;;5077931;28;20828;-61
2022/04/15 12:05:32;;;;;;;14.40;12.90;;;11.60;99.90;;;;;;5079867;28;20463;-61
2022/04/15 12:08:02;;;;;;;17.50;15.60;;;11.10;1.00;;;;;;5079538;28;20519;-61
2022/04/15 12:10:30;;;;;;;18.33;16.33;;;10.80;1.00;;;;;;5080327;28;20461;-61
2022/04/15 12:12:58;;;;;;;18.50;16.30;;;11.10;1.00;;;;;;5080323;28;20531;-61
2022/04/15 12:15:28;;;;;;;18.23;16.33;;;11.40;1.00;;;;;;5078893;28;20467;-61
2022/04/15 12:17:55;;;;;;;16.77;14.93;;;11.30;1.00;;;;;;5079529;28;20519;-61
2022/04/15 12:20:25;;;;;;;20.10;17.07;;;11.40;1.00;;;;;;5079430;28;20539;-61
2022/04/15 12:22:52;;;;;;;19.17;16.77;;;11.60;1.00;;;;;;5078373;28;20457;-61
2022/04/15 12:25:22;;;;;;;21.50;19.40;;;12.00;99.90;;;;;;5079116;28;20874;-61
2022/04/15 12:29:47;;;;;;;23.03;18.97;;;12.20;99.90;;;;;;5078558;28;20461;-61
2022/04/15 12:30:55;;;;;;;20.73;18.70;;;12.40;99.90;;;;;;5078471;28;20457;-61
2022/04/15 12:33:25;;;;;;;19.97;18.00;;;12.40;99.90;;;;;;5077906;28;20526;-61
2022/04/15 12:36:04;;;;;;;19.57;17.00;;;12.40;99.90;;;;;;5077670;28;20601;-61
2022/04/15 12:38:58;;;;;;;16.50;14.90;;;12.70;99.90;;;;;;5058058;28;20565;-61
2022/04/15 12:41:38;;;;;;;16.17;14.53;;;12.60;99.90;;;;;;5076319;28;20472;-61
2022/04/15 12:44:18;;;;;;;13.53;12.23;;;12.60;99.90;;;;;;5069013;28;20469;-61
2022/04/15 12:47:00;;;;;;;13.60;12.30;;;12.40;99.90;;;;;;5078904;28;20489;-61
2022/04/15 12:49:32;;;;;;;13.20;11.83;;;12.40;99.90;;;;;;5070357;28;20500;-61
2022/04/15 12:52:13;;;;;;;11.93;10.80;;;12.60;99.90;;;;;;5074436;28;20486;-61
2022/04/15 12:55:07;;;;;;;13.23;11.93;;;12.70;99.90;;;;;;5077359;28;20465;-61
2022/04/15 12:57:37;;;;;;;13.90;12.53;;;12.70;99.90;;;;;;5076676;28;20462;-61
2022/04/15 13:00:10;;;;;;;15.17;12.30;;;12.50;99.90;;;;;;5078308;28;20592;-61
2022/04/15 13:02:40;;;;;;;13.50;12.10;;;12.30;99.90;;;;;;5079073;28;20760;-61
2022/04/15 13:05:09;;;;;;;13.07;11.87;;;12.40;99.90;;;;;;5078901;28;20917;-61
2022/04/15 13:07:39;;;;;;;14.90;12.20;;;12.50;99.90;;;;;;5078611;28;20465;-61
2022/04/15 13:10:24;;;;;;;13.40;12.03;;;12.40;99.90;;;;;;5078924;28;20524;-61
2022/04/15 13:12:54;;;;;;;10.60;9.50;;;12.70;99.90;;;;;;5079163;28;20471;-61